createdAt,value
2022-07-25T00:01:43.688Z,7.85
2022-07-25T00:04:12.098Z,6.82
2022-07-25T00:06:39.908Z,5.78
2022-07-25T00:09:06.769Z,7.18
2022-07-25T00:11:33.818Z,6.75
2022-07-25T00:14:00.418Z,6.15
2022-07-25T00:16:27.141Z,7.07
2022-07-25T00:18:53.855Z,10.77
2022-07-25T00:21:20.698Z,6.18
2022-07-25T00:23:47.273Z,7.32
2022-07-25T00:26:14.535Z,7.03
2022-07-25T00:28:41.168Z,6.07
2022-07-25T00:31:07.813Z,9.60
2022-07-25T00:33:34.577Z,6.22
2022-07-25T00:36:01.258Z,6.95
2022-07-25T00:38:27.903Z,7.10
2022-07-25T00:40:55.710Z,12.00
2022-07-25T00:43:22.738Z,7.65
2022-07-25T00:45:49.327Z,6.60
2022-07-25T00:48:16.023Z,5.75
2022-07-25T00:50:43.191Z,5.53
2022-07-25T00:53:09.886Z,8.27
2022-07-25T00:55:37.362Z,6.20
2022-07-25T00:58:04.247Z,6.70
2022-07-25T01:00:31.157Z,6.65
2022-07-25T01:02:58.397Z,7.70
2022-07-25T01:05:25.521Z,6.10
2022-07-25T01:07:52.226Z,6.20
2022-07-25T01:10:19.089Z,5.97
2022-07-25T01:12:53.301Z,7.78
2022-07-25T01:15:26.062Z,6.13
2022-07-25T01:17:53.516Z,5.60
2022-07-25T01:20:21.966Z,6.15
2022-07-25T01:22:49.164Z,6.53
2022-07-25T01:25:16.380Z,6.43
2022-07-25T01:27:43.695Z,7.15
2022-07-25T01:30:12.554Z,8.30
2022-07-25T01:32:39.332Z,6.25
2022-07-25T01:35:07.512Z,6.47
2022-07-25T01:37:34.690Z,7.22
2022-07-25T01:40:01.744Z,6.85
2022-07-25T01:42:28.470Z,7.28
2022-07-25T01:44:55.461Z,6.93
2022-07-25T01:47:22.202Z,7.18
2022-07-25T01:49:48.935Z,8.45
2022-07-25T01:52:15.698Z,7.88
2022-07-25T01:54:43.556Z,8.05
2022-07-25T01:57:10.959Z,8.38
2022-07-25T01:59:40.693Z,6.68
2022-07-25T02:02:09.241Z,6.82
2022-07-25T02:04:36.512Z,7.15
2022-07-25T02:07:04.411Z,7.43
2022-07-25T02:09:32.867Z,6.72
2022-07-25T02:11:59.495Z,6.43
2022-07-25T02:14:26.204Z,5.78
2022-07-25T02:16:53.927Z,5.45
2022-07-25T02:19:20.658Z,7.53
2022-07-25T02:21:47.270Z,8.00
2022-07-25T02:24:16.624Z,9.75
2022-07-25T02:26:43.206Z,8.75
2022-07-25T02:29:09.840Z,8.20
2022-07-25T02:31:36.510Z,10.02
2022-07-25T02:34:03.509Z,7.32
2022-07-25T02:36:30.339Z,7.70
2022-07-25T02:38:56.985Z,9.35
2022-07-25T02:41:23.702Z,7.65
2022-07-25T02:43:50.322Z,6.40
2022-07-25T02:46:16.949Z,8.35
2022-07-25T02:48:43.667Z,7.43
2022-07-25T02:51:10.428Z,7.72
2022-07-25T02:53:56.125Z,11.20
2022-07-25T02:56:23.658Z,9.18
2022-07-25T02:58:50.295Z,8.40
2022-07-25T03:01:17.011Z,8.88
2022-07-25T03:03:43.772Z,8.52
2022-07-25T03:06:10.437Z,7.03
2022-07-25T03:08:37.061Z,6.70
2022-07-25T03:11:04.143Z,7.50
2022-07-25T03:13:33.065Z,11.18
2022-07-25T03:15:59.734Z,8.25
2022-07-25T03:18:26.601Z,8.18
2022-07-25T03:20:53.190Z,9.43
2022-07-25T03:23:19.776Z,8.18
2022-07-25T03:25:46.393Z,9.02
2022-07-25T03:28:13.013Z,9.55
2022-07-25T03:30:39.586Z,8.85
2022-07-25T03:33:06.199Z,9.93
2022-07-25T03:35:32.784Z,8.05
2022-07-25T03:38:01.800Z,8.63
2022-07-25T03:40:28.533Z,9.23
2022-07-25T03:42:55.321Z,9.20
2022-07-25T03:45:21.924Z,8.93
2022-07-25T03:47:48.626Z,9.55
2022-07-25T03:50:15.241Z,9.93
2022-07-25T03:52:42.238Z,9.25
2022-07-25T03:55:10.737Z,9.70
2022-07-25T03:57:38.277Z,11.38
2022-07-25T04:00:10.359Z,10.20
2022-07-25T04:02:40.107Z,9.95
2022-07-25T04:05:08.085Z,14.38
2022-07-25T04:07:35.066Z,9.35
2022-07-25T04:10:02.021Z,12.80
2022-07-25T04:12:29.030Z,11.32
2022-07-25T04:14:55.627Z,9.68
2022-07-25T04:17:22.311Z,7.85
2022-07-25T04:19:52.286Z,11.73
2022-07-25T04:22:19.169Z,10.25
2022-07-25T04:24:45.721Z,8.63
2022-07-25T04:27:12.321Z,10.50
2022-07-25T04:29:38.990Z,11.13
2022-07-25T04:32:06.324Z,11.77
2022-07-25T04:34:32.997Z,9.32
2022-07-25T04:36:59.625Z,9.38
2022-07-25T04:39:26.203Z,9.35
2022-07-25T04:41:52.811Z,10.77
2022-07-25T04:44:19.426Z,11.75
2022-07-25T04:46:46.027Z,13.88
2022-07-25T04:49:12.642Z,12.38
2022-07-25T04:51:39.306Z,11.23
2022-07-25T04:54:06.519Z,9.27
2022-07-25T04:56:33.360Z,10.85
2022-07-25T04:59:06.359Z,11.90
2022-07-25T05:01:33.331Z,14.25
2022-07-25T05:03:59.971Z,21.30
2022-07-25T05:06:26.686Z,10.82
2022-07-25T05:08:53.334Z,11.60
2022-07-25T05:11:19.958Z,15.30
2022-07-25T05:13:46.559Z,15.88
2022-07-25T05:16:13.156Z,12.30
2022-07-25T05:18:39.804Z,13.48
2022-07-25T05:21:10.272Z,9.82
2022-07-25T05:23:36.847Z,12.65
2022-07-25T05:26:03.837Z,26.35
2022-07-25T05:28:30.458Z,18.85
2022-07-25T05:30:57.055Z,15.10
2022-07-25T05:33:23.766Z,17.35
2022-07-25T05:35:50.389Z,16.48
2022-07-25T05:38:16.977Z,10.75
2022-07-25T05:40:45.020Z,14.00
2022-07-25T05:43:11.652Z,27.80
2022-07-25T05:45:38.247Z,28.73
2022-07-25T05:48:04.996Z,29.90
2022-07-25T05:50:31.593Z,21.40
2022-07-25T05:52:58.170Z,27.08
2022-07-25T05:55:24.797Z,33.20
2022-07-25T05:57:51.367Z,37.25
2022-07-25T06:00:20.573Z,40.00
2022-07-25T06:02:47.321Z,33.75
2022-07-25T06:05:13.982Z,35.53
2022-07-25T06:07:41.266Z,35.47
2022-07-25T06:10:08.932Z,24.20
2022-07-25T06:12:36.628Z,40.00
2022-07-25T06:15:04.361Z,19.83
2022-07-25T06:17:32.626Z,31.85
2022-07-25T06:19:59.469Z,24.02
2022-07-25T06:22:26.306Z,25.92
2022-07-25T06:24:52.924Z,24.95
2022-07-25T06:27:21.651Z,23.83
2022-07-25T06:29:49.944Z,18.45
2022-07-25T06:32:16.711Z,19.10
2022-07-25T06:34:43.644Z,26.75
2022-07-25T06:37:10.248Z,21.90
2022-07-25T06:39:36.871Z,30.10
2022-07-25T06:42:04.469Z,23.70
2022-07-25T06:44:37.379Z,21.23
2022-07-25T06:47:05.594Z,22.60
2022-07-25T06:49:32.397Z,25.98
2022-07-25T06:51:59.015Z,16.02
2022-07-25T06:54:25.629Z,14.40
2022-07-25T06:56:52.237Z,23.17
2022-07-25T06:59:18.863Z,21.83
2022-07-25T07:01:49.600Z,24.63
2022-07-25T07:04:18.032Z,27.40
2022-07-25T07:06:44.650Z,22.80
2022-07-25T07:09:11.293Z,26.98
2022-07-25T07:11:37.946Z,17.90
2022-07-25T07:14:05.011Z,17.17
2022-07-25T07:16:32.116Z,18.55
2022-07-25T07:18:58.709Z,14.15
2022-07-25T07:21:25.371Z,16.23
2022-07-25T07:23:53.374Z,11.18
2022-07-25T07:26:20.719Z,14.80
2022-07-25T07:28:47.374Z,11.65
2022-07-25T07:31:17.462Z,9.90
2022-07-25T07:33:44.594Z,8.43
2022-07-25T07:36:11.562Z,12.15
2022-07-25T07:38:38.138Z,14.43
2022-07-25T07:41:04.746Z,11.70
2022-07-25T07:43:32.012Z,9.45
2022-07-25T07:46:01.187Z,11.70
2022-07-25T07:48:29.233Z,11.20
2022-07-25T07:50:56.411Z,11.48
2022-07-25T07:53:23.258Z,9.07
2022-07-25T07:55:55.265Z,7.80
2022-07-25T07:58:22.327Z,10.43
2022-07-25T08:00:51.941Z,10.77
2022-07-25T08:03:20.950Z,10.33
2022-07-25T08:05:49.020Z,9.00
2022-07-25T08:08:16.450Z,13.82
2022-07-25T08:10:46.217Z,10.40
2022-07-25T08:13:21.683Z,10.83
2022-07-25T08:15:53.879Z,11.27
2022-07-25T08:18:20.661Z,9.32
2022-07-25T08:20:48.632Z,15.23
2022-07-25T08:23:15.236Z,12.27
2022-07-25T08:25:42.533Z,9.73
2022-07-25T08:28:09.420Z,11.52
2022-07-25T08:30:37.682Z,11.85
2022-07-25T08:33:07.637Z,10.75
2022-07-25T08:35:34.961Z,15.05
2022-07-25T08:38:02.790Z,12.10
2022-07-25T08:40:31.121Z,9.10
2022-07-25T08:42:58.866Z,12.60
2022-07-25T08:45:28.027Z,10.77
2022-07-25T08:47:56.081Z,11.73
2022-07-25T08:50:25.419Z,11.32
2022-07-25T08:53:04.606Z,19.33
2022-07-25T08:55:37.006Z,14.63
2022-07-25T08:58:03.701Z,9.38
2022-07-25T09:00:31.888Z,11.60
2022-07-25T09:03:01.370Z,14.07
2022-07-25T09:05:30.431Z,22.73
2022-07-25T09:07:58.187Z,11.90
2022-07-25T09:10:28.768Z,18.63
2022-07-25T09:13:01.954Z,16.38
2022-07-25T09:15:33.562Z,15.15
2022-07-25T09:18:02.852Z,15.73
2022-07-25T09:20:53.278Z,10.35
2022-07-25T09:23:29.273Z,11.23
2022-07-25T09:26:22.014Z,11.82
2022-07-25T09:28:53.315Z,9.57
2022-07-25T09:31:20.270Z,11.25
2022-07-25T09:33:52.339Z,7.80
2022-07-25T09:36:18.964Z,10.50
2022-07-25T09:38:57.560Z,14.18
2022-07-25T09:41:34.405Z,11.38
2022-07-25T09:44:01.130Z,11.10
2022-07-25T09:46:32.300Z,11.55
2022-07-25T09:49:00.325Z,18.10
2022-07-25T09:51:27.966Z,12.65
2022-07-25T09:53:54.782Z,9.65
2022-07-25T09:56:21.430Z,9.93
2022-07-25T09:58:48.078Z,12.45
2022-07-25T10:01:22.718Z,11.00
2022-07-25T10:04:06.017Z,10.80
2022-07-25T10:07:04.138Z,8.48
2022-07-25T10:09:31.761Z,9.55
2022-07-25T10:12:07.695Z,11.63
2022-07-25T10:14:35.581Z,8.57
2022-07-25T10:17:02.272Z,9.57
2022-07-25T10:19:52.829Z,13.55
2022-07-25T10:22:39.826Z,11.68
2022-07-25T10:25:15.156Z,5.70
2022-07-25T10:27:50.569Z,7.78
2022-07-25T10:30:25.977Z,7.90
2022-07-25T10:32:59.915Z,11.38
2022-07-25T10:35:28.073Z,9.35
2022-07-25T10:37:56.309Z,6.07
2022-07-25T10:40:34.890Z,9.25
2022-07-25T10:43:05.893Z,6.05
2022-07-25T10:45:54.474Z,6.68
2022-07-25T10:48:24.101Z,7.50
2022-07-25T10:50:58.727Z,8.05
2022-07-25T10:53:51.505Z,6.05
2022-07-25T10:56:20.469Z,5.82
2022-07-25T10:59:01.000Z,5.47
2022-07-25T11:01:34.153Z,6.75
2022-07-25T11:04:05.653Z,6.65
2022-07-25T11:06:40.455Z,7.50
2022-07-25T11:09:21.623Z,13.02
2022-07-25T11:11:53.499Z,11.60
2022-07-25T11:14:23.617Z,6.85
2022-07-25T11:16:55.184Z,6.93
2022-07-25T11:19:30.917Z,6.13
2022-07-25T11:22:00.179Z,5.70
2022-07-25T11:24:41.966Z,6.45
2022-07-25T11:27:12.493Z,6.50
2022-07-25T11:29:42.322Z,7.75
2022-07-25T11:32:11.768Z,13.68
2022-07-25T11:34:42.605Z,7.53
2022-07-25T11:37:11.433Z,13.73
2022-07-25T11:39:40.099Z,8.57
2022-07-25T11:42:09.098Z,8.10
2022-07-25T11:44:47.306Z,8.77
2022-07-25T11:47:31.255Z,10.95
2022-07-25T11:50:01.839Z,9.35
2022-07-25T11:52:35.821Z,10.23
2022-07-25T11:55:05.600Z,8.80
2022-07-25T11:57:34.287Z,8.00
2022-07-25T12:00:05.459Z,12.10
2022-07-25T12:02:33.844Z,6.88
2022-07-25T12:05:03.906Z,11.35
2022-07-25T12:07:46.964Z,8.90
2022-07-25T12:10:16.967Z,6.10
2022-07-25T12:12:54.877Z,10.63
2022-07-25T12:15:27.077Z,11.07
2022-07-25T12:17:55.494Z,8.70
2022-07-25T12:20:27.801Z,10.77
2022-07-25T12:22:56.682Z,6.47
2022-07-25T12:25:28.915Z,14.48
2022-07-25T12:27:58.851Z,9.90
2022-07-25T12:30:27.520Z,11.85
2022-07-25T12:32:54.872Z,9.60
2022-07-25T12:35:21.800Z,12.07
2022-07-25T12:37:49.078Z,8.13
2022-07-25T12:40:16.661Z,10.27
2022-07-25T12:42:44.428Z,5.32
2022-07-25T12:45:12.224Z,16.00
2022-07-25T12:47:39.645Z,6.60
2022-07-25T12:50:07.194Z,6.85
2022-07-25T12:52:34.438Z,9.73
2022-07-25T12:55:01.696Z,7.43
2022-07-25T12:57:28.340Z,9.85
2022-07-25T12:59:54.959Z,14.98
2022-07-25T13:02:21.610Z,11.93
2022-07-25T13:04:49.112Z,8.27
2022-07-25T13:07:16.205Z,6.22
2022-07-25T13:09:42.983Z,8.38
2022-07-25T13:12:12.322Z,7.30
2022-07-25T13:14:42.969Z,12.50
2022-07-25T13:17:10.807Z,7.43
2022-07-25T13:19:37.521Z,11.48
2022-07-25T13:22:04.261Z,7.03
2022-07-25T13:24:31.237Z,10.00
2022-07-25T13:26:57.881Z,7.22
2022-07-25T13:29:24.470Z,10.77
2022-07-25T13:31:51.512Z,9.43
2022-07-25T13:34:18.486Z,9.88
2022-07-25T13:36:45.041Z,6.68
2022-07-25T13:39:11.661Z,10.10
2022-07-25T13:41:38.265Z,6.65
2022-07-25T13:44:05.984Z,9.77
2022-07-25T13:46:34.150Z,10.88
2022-07-25T13:49:00.964Z,7.05
2022-07-25T13:51:27.682Z,13.18
2022-07-25T13:53:54.498Z,13.70
2022-07-25T13:56:21.134Z,6.47
2022-07-25T13:58:48.232Z,9.65
2022-07-25T14:01:15.254Z,10.88
2022-07-25T14:03:41.926Z,16.80
2022-07-25T14:06:11.134Z,6.65
2022-07-25T14:08:40.365Z,7.90
2022-07-25T14:11:08.323Z,5.68
2022-07-25T14:13:36.091Z,9.70
2022-07-25T14:16:03.491Z,5.57
2022-07-25T14:18:31.874Z,8.23
2022-07-25T14:20:59.658Z,7.97
2022-07-25T14:23:29.899Z,5.38
2022-07-25T14:25:58.515Z,6.53
2022-07-25T14:28:25.797Z,7.97
2022-07-25T14:30:52.548Z,8.60
2022-07-25T14:33:19.256Z,8.23
2022-07-25T14:35:45.884Z,5.65
2022-07-25T14:38:12.617Z,4.38
2022-07-25T14:40:41.438Z,7.63
2022-07-25T14:43:08.524Z,8.15
2022-07-25T14:45:37.101Z,6.47
2022-07-25T14:48:06.173Z,6.93
2022-07-25T14:50:32.885Z,6.22
2022-07-25T14:52:59.629Z,10.23
2022-07-25T14:55:26.298Z,14.20
2022-07-25T14:57:52.938Z,6.53
2022-07-25T15:00:19.769Z,8.93
2022-07-25T15:02:46.449Z,7.65
2022-07-25T15:05:13.087Z,11.13
2022-07-25T15:07:40.105Z,6.80
2022-07-25T15:10:07.038Z,5.88
2022-07-25T15:12:33.646Z,6.40
2022-07-25T15:15:00.269Z,6.75
2022-07-25T15:17:26.937Z,4.72
2022-07-25T15:19:53.538Z,6.97
2022-07-25T15:22:20.492Z,4.75
2022-07-25T15:25:17.944Z,6.57
2022-07-25T15:27:33.807Z,5.85
2022-07-25T15:30:00.794Z,4.53
2022-07-25T15:32:27.423Z,4.90
2022-07-25T15:34:54.025Z,6.03
2022-07-25T15:37:21.934Z,10.65
2022-07-25T15:39:48.646Z,4.68
2022-07-25T15:42:15.626Z,7.07
2022-07-25T15:44:42.233Z,6.50
2022-07-25T15:47:08.973Z,5.38
2022-07-25T15:49:37.129Z,4.50
2022-07-25T15:52:04.390Z,5.82
2022-07-25T15:54:31.053Z,4.10
2022-07-25T15:56:57.798Z,5.25
2022-07-25T15:59:24.400Z,5.85
2022-07-25T16:01:51.025Z,2.63
2022-07-25T16:04:17.870Z,4.45
2022-07-25T16:06:44.715Z,6.22
2022-07-25T16:09:14.897Z,6.80
2022-07-25T16:11:41.654Z,6.78
2022-07-25T16:14:09.784Z,5.10
2022-07-25T16:16:36.858Z,7.25
2022-07-25T16:19:04.119Z,5.63
2022-07-25T16:21:30.974Z,5.00
2022-07-25T16:23:57.601Z,4.07
2022-07-25T16:26:24.701Z,16.48
2022-07-25T16:28:54.034Z,6.85
2022-07-25T16:31:24.243Z,11.23
2022-07-25T16:33:53.110Z,8.70
2022-07-25T16:36:19.695Z,5.13
2022-07-25T16:38:47.791Z,5.75
2022-07-25T16:41:14.938Z,7.78
2022-07-25T16:43:41.749Z,6.32
2022-07-25T16:46:08.505Z,5.65
2022-07-25T16:48:35.856Z,3.30
2022-07-25T16:51:02.483Z,7.00
2022-07-25T16:53:29.171Z,7.82
2022-07-25T16:55:55.881Z,6.60
2022-07-25T16:58:22.542Z,5.45
2022-07-25T17:00:49.281Z,7.63
2022-07-25T17:03:15.893Z,6.35
2022-07-25T17:05:42.605Z,4.57
2022-07-25T17:08:09.366Z,9.40
2022-07-25T17:10:36.001Z,6.82
2022-07-25T17:13:02.611Z,5.57
2022-07-25T17:15:29.272Z,8.10
2022-07-25T17:17:55.858Z,6.53
2022-07-25T17:20:22.581Z,5.95
2022-07-25T17:22:49.264Z,4.85
2022-07-25T17:25:15.869Z,3.42
2022-07-25T17:27:42.519Z,4.43
2022-07-25T17:30:09.678Z,5.65
2022-07-25T17:32:36.316Z,6.13
2022-07-25T17:35:02.975Z,3.33
2022-07-25T17:37:29.762Z,19.25
2022-07-25T17:39:56.580Z,2.10
2022-07-25T17:42:23.961Z,6.47
2022-07-25T17:44:51.797Z,5.85
2022-07-25T17:47:18.849Z,3.50
2022-07-25T17:49:46.005Z,4.72
2022-07-25T17:52:12.738Z,2.53
2022-07-25T17:54:40.057Z,8.02
2022-07-25T17:57:06.784Z,4.18
2022-07-25T17:59:34.359Z,10.70
2022-07-25T18:02:04.203Z,3.65
2022-07-25T18:04:31.084Z,6.70
2022-07-25T18:06:58.667Z,10.57
2022-07-25T18:09:25.462Z,2.13
2022-07-25T18:11:52.236Z,2.67
2022-07-25T18:14:18.897Z,4.15
2022-07-25T18:16:45.634Z,4.93
2022-07-25T18:19:13.168Z,2.05
2022-07-25T18:21:39.939Z,2.72
2022-07-25T18:24:07.321Z,1.90
2022-07-25T18:26:34.669Z,4.78
2022-07-25T18:29:01.405Z,7.95
2022-07-25T18:31:28.298Z,3.45
2022-07-25T18:33:55.257Z,3.78
2022-07-25T18:36:22.114Z,2.75
2022-07-25T18:38:49.020Z,3.63
2022-07-25T18:41:31.008Z,5.03
2022-07-25T18:43:58.151Z,5.13
2022-07-25T18:46:25.704Z,1.70
2022-07-25T18:48:53.883Z,2.08
2022-07-25T18:51:20.831Z,2.92
2022-07-25T18:53:48.834Z,3.35
2022-07-25T18:56:16.739Z,1.50
2022-07-25T18:58:43.903Z,7.97
2022-07-25T19:01:10.615Z,5.93
2022-07-25T19:03:37.694Z,4.88
2022-07-25T19:06:05.370Z,1.75
2022-07-25T19:08:32.719Z,3.97
2022-07-25T19:10:59.537Z,3.67
2022-07-25T19:13:48.353Z,8.77
2022-07-25T19:16:12.971Z,5.82
2022-07-25T19:18:40.385Z,5.68
2022-07-25T19:21:07.386Z,3.10
2022-07-25T19:23:34.062Z,2.88
2022-07-25T19:26:02.204Z,2.97
2022-07-25T19:28:29.066Z,3.70
2022-07-25T19:30:56.861Z,2.80
2022-07-25T19:33:24.417Z,3.67
2022-07-25T19:35:51.413Z,3.17
2022-07-25T19:38:19.614Z,3.85
2022-07-25T19:40:46.978Z,2.95
2022-07-25T19:43:13.641Z,2.90
2022-07-25T19:45:40.338Z,3.53
2022-07-25T19:48:07.136Z,2.65
2022-07-25T19:50:34.086Z,3.50
2022-07-25T19:53:01.568Z,3.55
2022-07-25T19:55:28.717Z,1.67
2022-07-25T19:57:55.499Z,2.60
2022-07-25T20:00:22.230Z,3.20
2022-07-25T20:02:48.996Z,2.22
2022-07-25T20:05:17.203Z,4.75
2022-07-25T20:07:43.797Z,5.43
2022-07-25T20:10:10.811Z,3.65
2022-07-25T20:12:38.498Z,2.35
2022-07-25T20:15:05.779Z,3.70
2022-07-25T20:17:32.450Z,5.10
2022-07-25T20:19:59.184Z,3.15
2022-07-25T20:22:26.203Z,3.17
2022-07-25T20:24:52.872Z,4.80
2022-07-25T20:27:19.558Z,4.60
2022-07-25T20:29:46.938Z,4.22
2022-07-25T20:32:13.639Z,2.92
2022-07-25T20:34:40.287Z,4.70
2022-07-25T20:37:06.870Z,4.18
2022-07-25T20:39:33.509Z,4.72
2022-07-25T20:42:01.293Z,2.83
2022-07-25T20:44:28.238Z,3.58
2022-07-25T20:46:54.934Z,4.15
2022-07-25T20:49:21.690Z,3.05
2022-07-25T20:51:54.142Z,8.20
2022-07-25T20:54:21.165Z,3.35
2022-07-25T20:56:47.993Z,3.80
2022-07-25T20:59:14.551Z,7.65
2022-07-25T21:01:41.531Z,4.55
2022-07-25T21:04:08.373Z,5.25
2022-07-25T21:06:35.108Z,2.97
2022-07-25T21:09:04.428Z,5.25
2022-07-25T21:11:31.188Z,2.92
2022-07-25T21:13:57.863Z,6.45
2022-07-25T21:16:27.370Z,2.00
2022-07-25T21:18:55.953Z,5.47
2022-07-25T21:21:23.288Z,3.90
2022-07-25T21:23:50.011Z,3.72
2022-07-25T21:26:16.778Z,6.18
2022-07-25T21:28:43.731Z,2.10
2022-07-25T21:31:11.775Z,3.25
2022-07-25T21:33:39.000Z,2.63
2022-07-25T21:36:05.886Z,4.18
2022-07-25T21:38:35.007Z,2.92
2022-07-25T21:41:01.752Z,5.88
2022-07-25T21:43:28.453Z,3.08
2022-07-25T21:45:55.570Z,6.88
2022-07-25T21:48:42.970Z,9.57
2022-07-25T21:51:14.119Z,4.95
2022-07-25T21:53:47.874Z,5.72
2022-07-25T21:56:15.486Z,3.05
2022-07-25T21:58:42.209Z,4.38
2022-07-25T22:01:08.864Z,2.45
2022-07-25T22:03:35.787Z,2.85
2022-07-25T22:06:02.441Z,5.53
2022-07-25T22:08:29.050Z,3.58
2022-07-25T22:10:56.378Z,5.28
2022-07-25T22:13:25.213Z,5.88
2022-07-25T22:15:51.902Z,6.60
2022-07-25T22:18:18.786Z,7.43
2022-07-25T22:20:45.649Z,4.50
2022-07-25T22:23:12.366Z,5.03
2022-07-25T22:25:39.038Z,5.28
2022-07-25T22:28:05.715Z,6.78
2022-07-25T22:30:35.959Z,5.50
2022-07-25T22:33:02.800Z,4.10
2022-07-25T22:35:29.486Z,5.93
2022-07-25T22:37:56.144Z,2.40
2022-07-25T22:40:22.870Z,3.40
2022-07-25T22:42:49.465Z,7.00
2022-07-25T22:45:16.421Z,8.50
2022-07-25T22:47:43.018Z,5.03
2022-07-25T22:50:10.041Z,2.83
2022-07-25T22:52:36.652Z,5.28
2022-07-25T22:55:03.838Z,3.60
2022-07-25T22:57:36.897Z,3.13
2022-07-25T23:00:10.277Z,5.95
2022-07-25T23:02:38.121Z,3.92
2022-07-25T23:05:05.859Z,3.60
2022-07-25T23:07:33.196Z,4.15
2022-07-25T23:10:00.472Z,5.75
2022-07-25T23:12:27.216Z,4.45
2022-07-25T23:14:53.822Z,6.18
2022-07-25T23:17:20.601Z,3.95
2022-07-25T23:19:49.891Z,3.95
2022-07-25T23:22:17.922Z,2.00
2022-07-25T23:24:45.349Z,6.07
2022-07-25T23:27:12.688Z,3.95
2022-07-25T23:29:39.466Z,3.17
2022-07-25T23:32:07.091Z,4.97
2022-07-25T23:34:34.460Z,3.50
2022-07-25T23:37:02.043Z,3.10
2022-07-25T23:39:29.421Z,5.25
2022-07-25T23:41:56.008Z,3.92
2022-07-25T23:44:22.708Z,4.40
2022-07-25T23:46:50.868Z,3.20
2022-07-25T23:49:17.596Z,5.90
2022-07-25T23:51:44.323Z,5.35
2022-07-25T23:54:11.454Z,3.85
2022-07-25T23:56:38.031Z,3.42
2022-07-25T23:59:04.898Z,2.22
